createdAt,value
2023-02-02T07:11:58.475Z,0.45
2023-02-02T07:14:27.654Z,0.42
2023-02-02T07:16:55.593Z,0.41
2023-02-02T07:19:23.569Z,0.39
2023-02-02T07:21:51.497Z,0.37
2023-02-02T07:24:19.326Z,0.35
2023-02-02T07:26:47.327Z,0.33
2023-02-02T07:29:15.344Z,0.30
2023-02-02T07:31:43.452Z,0.29
2023-02-02T07:34:11.440Z,0.28
2023-02-02T07:36:39.434Z,0.25
2023-02-02T07:39:07.478Z,0.23
2023-02-02T07:41:36.709Z,0.22
2023-02-02T07:44:05.599Z,0.22
2023-02-02T07:46:33.864Z,0.23
2023-02-02T07:49:01.883Z,0.22
2023-02-02T07:51:30.081Z,0.20
2023-02-02T07:53:59.208Z,0.19
2023-02-02T07:56:35.688Z,0.19
2023-02-02T08:02:57.151Z,0.27
2023-02-02T08:05:25.742Z,0.29
2023-02-02T08:07:54.123Z,0.28
2023-02-02T08:10:22.567Z,0.26
2023-02-02T08:12:51.399Z,0.28
2023-02-02T08:15:19.512Z,0.29
2023-02-02T08:17:47.790Z,0.28
2023-02-02T08:20:16.311Z,0.28
2023-02-02T08:22:44.431Z,0.30
2023-02-02T08:25:12.962Z,0.30
2023-02-02T08:27:44.966Z,0.31
2023-02-02T08:30:13.496Z,0.32
2023-02-02T08:32:41.509Z,0.32
2023-02-02T08:35:09.680Z,0.33
2023-02-02T08:37:37.925Z,0.35
2023-02-02T08:40:06.937Z,0.37
2023-02-02T08:42:36.432Z,0.37
2023-02-02T08:46:01.170Z,0.36
2023-02-02T08:48:09.547Z,0.36
2023-02-02T08:50:39.878Z,0.37
2023-02-02T08:53:09.347Z,0.41
2023-02-02T08:55:40.090Z,0.43
2023-02-02T08:58:09.760Z,0.47
2023-02-02T09:00:41.583Z,0.52
2023-02-02T09:03:25.715Z,0.56
2023-02-02T09:05:54.943Z,0.60
2023-02-02T09:08:23.706Z,0.61
2023-02-02T09:10:53.735Z,0.63
2023-02-02T09:13:23.972Z,0.63
2023-02-02T09:15:53.659Z,0.63
2023-02-02T09:18:22.791Z,0.64
2023-02-02T09:20:53.857Z,0.64
2023-02-02T09:23:26.132Z,0.63
2023-02-02T09:26:18.159Z,0.61
2023-02-02T09:29:14.385Z,0.61
2023-02-02T09:31:57.323Z,0.63
2023-02-02T09:34:45.743Z,0.64
2023-02-02T09:37:19.771Z,0.63
2023-02-02T09:43:12.011Z,0.68
2023-02-02T09:46:16.473Z,0.78
2023-02-02T09:49:17.542Z,0.84
2023-02-02T09:52:05.111Z,0.85
2023-02-02T10:03:00.733Z,0.81
2023-02-02T10:09:12.251Z,0.83
2023-02-02T10:11:46.766Z,0.84
2023-02-02T10:14:23.127Z,0.86
2023-02-02T10:16:55.606Z,0.89
2023-02-02T10:19:26.222Z,0.90
2023-02-02T10:22:24.594Z,0.92
2023-02-02T10:24:52.549Z,0.95
2023-02-02T10:27:40.193Z,0.96
2023-02-02T10:30:17.389Z,0.97
2023-02-02T10:33:01.548Z,0.99
2023-02-02T10:35:49.892Z,0.98
2023-02-02T10:38:33.884Z,0.97
2023-02-02T10:41:13.952Z,1.01
2023-02-02T10:43:41.834Z,1.07
2023-02-02T10:46:26.228Z,1.09
2023-02-02T10:49:23.635Z,1.14
2023-02-02T10:52:10.761Z,1.19
2023-02-02T10:54:55.317Z,1.19
2023-02-02T10:57:54.272Z,1.21
2023-02-02T11:00:36.024Z,1.22
2023-02-02T11:03:04.495Z,1.27
2023-02-02T11:05:36.434Z,1.30
2023-02-02T11:08:15.678Z,1.34
2023-02-02T11:10:45.293Z,1.41
2023-02-02T11:13:21.757Z,1.48
2023-02-02T11:15:49.656Z,1.53
2023-02-02T11:18:30.914Z,1.60
2023-02-02T11:20:58.967Z,1.63
2023-02-02T11:23:28.210Z,1.61
2023-02-02T11:26:01.535Z,1.61
2023-02-02T11:28:35.885Z,1.61
2023-02-02T11:31:14.676Z,1.58
2023-02-02T11:33:42.666Z,1.56
2023-02-02T11:36:26.968Z,1.56
2023-02-02T11:39:16.305Z,1.54
2023-02-02T11:41:44.757Z,1.56
2023-02-02T11:44:26.489Z,1.60
2023-02-02T11:46:55.000Z,1.61
2023-02-02T11:49:24.244Z,1.60
2023-02-02T11:52:00.151Z,1.60
2023-02-02T11:54:31.478Z,1.59
2023-02-02T11:57:07.615Z,1.54
2023-02-02T11:59:40.444Z,1.51
2023-02-02T12:02:20.698Z,1.51
2023-02-02T12:04:51.804Z,1.49
2023-02-02T12:07:27.514Z,1.47
2023-02-02T12:10:13.641Z,1.44
2023-02-02T12:13:10.720Z,1.42
2023-02-02T12:15:38.714Z,1.39
2023-02-02T12:18:34.269Z,1.38
2023-02-02T12:21:06.516Z,1.37
2023-02-02T12:24:11.134Z,1.41
2023-02-02T12:26:40.760Z,1.47
2023-02-02T12:29:27.735Z,1.54
2023-02-02T12:32:20.449Z,1.61
2023-02-02T12:35:10.667Z,1.67
2023-02-02T12:38:14.238Z,1.74
2023-02-02T12:40:50.967Z,1.85
2023-02-02T12:43:33.078Z,1.87
2023-02-02T12:46:26.859Z,1.88
2023-02-02T12:49:03.576Z,2.01
2023-02-02T12:51:55.550Z,2.10
2023-02-02T12:54:44.028Z,2.06
2023-02-02T12:57:26.948Z,1.96
2023-02-02T13:00:04.254Z,1.83
2023-02-02T13:02:50.404Z,1.72
2023-02-02T13:05:24.532Z,1.61
2023-02-02T13:07:58.350Z,1.53
2023-02-02T13:10:35.774Z,1.46
2023-02-02T13:13:25.505Z,1.39
2023-02-02T13:15:59.395Z,1.35
2023-02-02T13:18:32.012Z,1.33
2023-02-02T13:21:07.011Z,1.33
2023-02-02T13:23:44.990Z,1.34
2023-02-02T13:26:20.378Z,1.37
2023-02-02T13:28:52.724Z,1.40
2023-02-02T13:31:49.083Z,1.42
2023-02-02T13:34:24.064Z,1.45
2023-02-02T13:36:59.817Z,1.48
2023-02-02T13:39:36.647Z,1.50
2023-02-02T13:42:08.442Z,1.51
2023-02-02T13:44:42.209Z,1.53
2023-02-02T13:47:27.390Z,1.59
2023-02-02T13:50:03.576Z,1.74
2023-02-02T13:53:00.972Z,1.90
2023-02-02T13:55:38.793Z,1.98
2023-02-02T13:58:28.485Z,2.08
2023-02-02T14:01:05.688Z,2.17
2023-02-02T14:03:38.570Z,2.12
2023-02-02T14:06:18.419Z,2.03
2023-02-02T14:08:56.635Z,1.95
2023-02-02T14:11:34.532Z,1.90
2023-02-02T14:14:21.272Z,1.84
2023-02-02T14:16:52.084Z,1.78
2023-02-02T14:19:28.800Z,1.75
2023-02-02T14:22:01.461Z,1.71
2023-02-02T14:24:36.971Z,1.68
2023-02-02T14:27:08.203Z,1.65
2023-02-02T14:29:37.506Z,1.60
2023-02-02T14:32:23.945Z,1.59
2023-02-02T14:34:53.404Z,1.61
2023-02-02T14:37:24.083Z,1.65
2023-02-02T14:40:07.356Z,1.64
2023-02-02T14:42:39.007Z,1.60
2023-02-02T14:45:12.154Z,1.54
2023-02-02T14:48:23.276Z,1.46
2023-02-02T14:50:58.336Z,1.39
2023-02-02T14:53:31.123Z,1.32
2023-02-02T14:56:09.632Z,1.29
2023-02-02T14:58:43.963Z,1.26
2023-02-02T15:01:19.876Z,1.23
2023-02-02T15:03:57.098Z,1.22
2023-02-02T15:06:33.784Z,1.22
2023-02-02T15:09:20.483Z,1.20
2023-02-02T15:12:01.851Z,1.15
2023-02-02T15:14:49.891Z,1.11
2023-02-02T15:17:39.152Z,1.07
2023-02-02T15:20:25.858Z,1.02
2023-02-02T15:23:14.723Z,0.98
2023-02-02T15:25:52.531Z,0.95
2023-02-02T15:28:37.302Z,0.93
2023-02-02T15:44:44.889Z,1.16
2023-02-02T15:47:17.006Z,1.12
2023-02-02T15:49:46.029Z,1.07
2023-02-02T15:52:22.072Z,1.01
2023-02-02T15:54:58.911Z,0.94
2023-02-02T15:57:35.952Z,0.88
2023-02-02T16:00:31.920Z,0.84
2023-02-02T16:03:06.364Z,0.83
2023-02-02T16:05:37.762Z,0.81
2023-02-02T16:08:14.035Z,0.81
2023-02-02T16:10:43.654Z,0.80
2023-02-02T16:13:26.405Z,0.78
2023-02-02T16:16:00.000Z,0.76
2023-02-02T16:18:29.451Z,0.73
2023-02-02T16:21:00.939Z,0.68
2023-02-02T16:23:33.451Z,0.63
2023-02-02T16:26:05.005Z,0.56
2023-02-02T16:28:34.478Z,0.50
2023-02-02T16:31:03.349Z,0.44
2023-02-02T16:33:57.625Z,0.37
2023-02-02T16:36:29.541Z,0.31
2023-02-02T16:38:59.488Z,0.28
2023-02-02T16:41:36.385Z,0.26
2023-02-02T16:44:19.048Z,0.27
2023-02-02T16:46:50.142Z,0.27
2023-02-02T16:49:23.954Z,0.28
2023-02-02T16:52:19.259Z,0.30
2023-02-02T16:54:56.166Z,0.31
2023-02-02T16:57:28.704Z,0.32
2023-02-02T17:00:01.040Z,0.32
2023-02-02T17:02:37.285Z,0.33
2023-02-02T17:05:17.094Z,0.32
2023-02-02T17:07:54.503Z,0.32
2023-02-02T17:10:26.395Z,0.31
2023-02-02T17:12:54.718Z,0.31
2023-02-02T17:15:32.722Z,0.30
2023-02-02T17:18:04.849Z,0.29
2023-02-02T17:20:35.612Z,0.28
2023-02-02T17:23:07.020Z,0.28
2023-02-02T17:25:40.191Z,0.27
2023-02-02T17:28:12.200Z,0.25
2023-02-02T17:30:42.613Z,0.24
2023-02-02T17:35:53.539Z,0.21
2023-02-02T17:38:23.925Z,0.20
2023-02-02T17:40:53.385Z,0.19
2023-02-02T17:43:22.100Z,0.18
2023-02-02T17:45:50.636Z,0.18
2023-02-02T17:48:19.069Z,0.18
2023-02-02T17:50:47.592Z,0.17
2023-02-02T17:53:19.460Z,0.15
2023-02-02T17:56:04.567Z,0.13
2023-02-02T17:58:32.842Z,0.11
2023-02-02T18:01:00.925Z,0.10
2023-02-02T18:03:34.415Z,0.11
2023-02-02T18:06:03.790Z,0.12
2023-02-02T18:08:33.359Z,0.14
2023-02-02T18:11:01.748Z,0.15
2023-02-02T18:13:29.715Z,0.17
2023-02-02T18:15:58.945Z,0.18
2023-02-02T18:18:27.559Z,0.18
2023-02-02T18:20:56.068Z,0.18
2023-02-02T18:23:24.377Z,0.19
2023-02-02T18:25:52.605Z,0.20
2023-02-02T18:28:21.308Z,0.21
2023-02-02T18:30:49.856Z,0.22
2023-02-02T18:33:18.108Z,0.22
2023-02-02T18:35:47.766Z,0.22
2023-02-02T18:38:16.115Z,0.23
2023-02-02T18:40:44.079Z,0.23
2023-02-02T18:43:12.136Z,0.23
2023-02-02T18:45:40.741Z,0.24
2023-02-02T18:48:09.497Z,0.24
2023-02-02T18:50:38.818Z,0.24
2023-02-02T18:53:06.836Z,0.24
2023-02-02T18:55:38.505Z,0.23
2023-02-02T18:58:06.807Z,0.23
2023-02-02T19:00:35.624Z,0.22
2023-02-02T19:03:03.739Z,0.22
2023-02-02T19:05:32.679Z,0.21
2023-02-02T19:08:00.879Z,0.21
2023-02-02T19:10:29.707Z,0.20
2023-02-02T19:13:19.268Z,0.20
2023-02-02T19:15:50.521Z,0.20
2023-02-02T19:18:22.098Z,0.20
2023-02-02T19:20:52.533Z,0.21
2023-02-02T19:23:23.832Z,0.22
2023-02-02T19:25:54.784Z,0.22
2023-02-02T19:28:27.223Z,0.23
2023-02-02T19:31:01.013Z,0.23
2023-02-02T19:33:42.094Z,0.23
2023-02-02T19:36:21.810Z,0.23
2023-02-02T19:38:55.885Z,0.24
2023-02-02T19:41:25.184Z,0.26
2023-02-02T19:43:59.234Z,0.28
2023-02-02T19:46:31.182Z,0.29
2023-02-02T19:49:10.923Z,0.31
2023-02-02T19:51:41.741Z,0.32
2023-02-02T19:54:22.356Z,0.34
2023-02-02T19:56:54.121Z,0.35
2023-02-02T19:59:51.847Z,0.34
2023-02-02T20:02:29.144Z,0.27
2023-02-02T20:05:09.688Z,0.21
2023-02-02T20:07:40.225Z,0.15
2023-02-02T20:10:33.807Z,0.11
2023-02-02T20:13:11.311Z,0.04
2023-02-02T20:15:41.540Z,-0.00
2023-02-02T20:18:18.414Z,-0.04
2023-02-02T20:20:56.643Z,-0.08
2023-02-02T20:23:46.797Z,-0.11
2023-02-02T20:26:34.621Z,-0.13
2023-02-02T20:29:18.266Z,-0.13
2023-02-02T20:31:54.420Z,-0.13
2023-02-02T20:34:32.167Z,-0.14
2023-02-02T20:37:03.721Z,-0.15
2023-02-02T20:39:41.801Z,-0.14
2023-02-02T20:42:11.885Z,-0.15
2023-02-02T20:44:42.704Z,-0.16
2023-02-02T20:47:13.026Z,-0.18
2023-02-02T20:49:43.557Z,-0.21
2023-02-02T20:52:18.069Z,-0.23
2023-02-02T20:54:49.975Z,-0.23
2023-02-02T20:57:21.804Z,-0.23
2023-02-02T20:59:53.214Z,-0.23
2023-02-02T21:02:23.937Z,-0.23
2023-02-02T21:04:53.923Z,-0.22
2023-02-02T21:07:22.730Z,-0.23
2023-02-02T21:09:51.047Z,-0.23
2023-02-02T21:12:19.119Z,-0.23
2023-02-02T21:14:47.006Z,-0.23
2023-02-02T21:17:16.103Z,-0.22
2023-02-02T21:19:45.104Z,-0.23
2023-02-02T21:22:13.488Z,-0.23
2023-02-02T21:24:42.022Z,-0.23
2023-02-02T21:27:10.847Z,-0.25
2023-02-02T21:29:39.347Z,-0.26
2023-02-02T21:32:07.523Z,-0.27
2023-02-02T21:34:35.593Z,-0.28
2023-02-02T21:37:03.759Z,-0.28
2023-02-02T21:39:34.748Z,-0.27
2023-02-02T21:42:13.458Z,-0.27
2023-02-02T21:44:44.900Z,-0.26
2023-02-02T21:47:22.484Z,-0.27
2023-02-02T21:49:50.561Z,-0.28
2023-02-02T21:52:20.181Z,-0.28
2023-02-02T21:54:48.853Z,-0.28
2023-02-02T21:57:18.388Z,-0.28
2023-02-02T21:59:48.191Z,-0.28
2023-02-02T22:02:28.752Z,-0.28
2023-02-02T22:04:58.381Z,-0.28
2023-02-02T22:07:26.683Z,-0.28
2023-02-02T22:09:55.190Z,-0.28
2023-02-02T22:12:25.324Z,-0.28
2023-02-02T22:14:59.513Z,-0.29
2023-02-02T22:17:41.103Z,-0.28
2023-02-02T22:20:15.687Z,-0.27
2023-02-02T22:22:48.909Z,-0.28
2023-02-02T22:25:17.873Z,-0.31
2023-02-02T22:27:45.761Z,-0.33
2023-02-02T22:30:33.622Z,-0.35
2023-02-02T22:33:01.777Z,-0.38
2023-02-02T22:35:31.015Z,-0.38
2023-02-02T22:37:59.124Z,-0.40
2023-02-02T22:40:27.828Z,-0.41
2023-02-02T22:42:58.769Z,-0.42
2023-02-02T22:45:27.152Z,-0.45
2023-02-02T22:47:55.313Z,-0.47
2023-02-02T22:50:27.359Z,-0.48
2023-02-02T22:52:56.033Z,-0.49
2023-02-02T22:55:24.533Z,-0.51
2023-02-02T22:57:52.905Z,-0.52
2023-02-02T23:00:24.482Z,-0.54
2023-02-02T23:02:53.963Z,-0.54
2023-02-02T23:05:23.372Z,-0.54
2023-02-02T23:07:52.636Z,-0.55
2023-02-02T23:10:26.855Z,-0.56
2023-02-02T23:12:56.166Z,-0.57
2023-02-02T23:15:24.323Z,-0.56
2023-02-02T23:17:53.821Z,-0.57
2023-02-02T23:20:22.109Z,-0.58
2023-02-02T23:22:50.918Z,-0.58
2023-02-02T23:25:18.933Z,-0.57
2023-02-02T23:27:47.062Z,-0.56
2023-02-02T23:30:15.395Z,-0.56
2023-02-02T23:32:43.495Z,-0.55
2023-02-02T23:35:11.973Z,-0.54
2023-02-02T23:37:39.843Z,-0.54
2023-02-02T23:40:09.049Z,-0.54
2023-02-02T23:42:37.176Z,-0.54
2023-02-02T23:45:06.408Z,-0.53
2023-02-02T23:47:35.630Z,-0.53
2023-02-02T23:50:06.490Z,-0.54
2023-02-02T23:52:35.683Z,-0.54
2023-02-02T23:55:04.657Z,-0.53
2023-02-02T23:57:32.897Z,-0.53
